createdAt,value
2022-12-15T00:02:17.991Z,-8.60
2022-12-15T00:05:03.144Z,-8.60
2022-12-15T00:07:48.430Z,-8.60
2022-12-15T00:10:33.440Z,-8.70
2022-12-15T00:13:18.713Z,-8.60
2022-12-15T00:16:07.315Z,-8.60
2022-12-15T00:18:52.555Z,-8.80
2022-12-15T00:21:37.742Z,-8.90
2022-12-15T00:24:23.293Z,-9.00
2022-12-15T00:27:08.375Z,-9.10
2022-12-15T00:29:53.721Z,-9.10
2022-12-15T00:32:38.896Z,-9.10
2022-12-15T00:35:24.638Z,-9.10
2022-12-15T00:38:09.813Z,-9.00
2022-12-15T00:40:37.019Z,-8.90
2022-12-15T00:43:04.148Z,-9.00
2022-12-15T00:45:49.618Z,-8.90
2022-12-15T00:48:16.259Z,-8.90
2022-12-15T00:50:53.534Z,-9.00
2022-12-15T00:53:43.287Z,-9.20
2022-12-15T00:56:29.130Z,-9.20
2022-12-15T00:59:15.007Z,-9.30
2022-12-15T01:02:01.007Z,-9.20
2022-12-15T01:04:47.761Z,-9.30
2022-12-15T01:07:33.555Z,-9.40
2022-12-15T01:10:19.037Z,-9.50
2022-12-15T01:13:05.313Z,-9.30
2022-12-15T01:15:50.393Z,-9.20
2022-12-15T01:18:35.630Z,-9.20
2022-12-15T01:21:05.089Z,-9.30
2022-12-15T01:23:33.185Z,-9.20
2022-12-15T01:26:00.313Z,-9.20
2022-12-15T01:28:26.880Z,-9.40
2022-12-15T01:30:53.787Z,-9.40
2022-12-15T01:33:21.244Z,-9.20
2022-12-15T01:35:57.928Z,-9.20
2022-12-15T01:38:25.003Z,-9.10
2022-12-15T01:41:04.853Z,-9.10
2022-12-15T01:43:35.378Z,-9.00
2022-12-15T01:46:23.113Z,-9.20
2022-12-15T01:48:59.211Z,-9.30
2022-12-15T01:51:33.305Z,-9.30
2022-12-15T01:54:05.470Z,-9.40
2022-12-15T01:56:46.094Z,-9.50
2022-12-15T01:59:17.186Z,-9.40
2022-12-15T02:01:43.896Z,-9.60
2022-12-15T02:04:19.406Z,-9.60
2022-12-15T02:06:45.998Z,-9.50
2022-12-15T02:09:12.924Z,-9.40
2022-12-15T02:11:48.099Z,-9.50
2022-12-15T02:14:56.073Z,-9.30
2022-12-15T02:17:34.653Z,-9.20
2022-12-15T02:20:48.519Z,-9.10
2022-12-15T02:23:27.208Z,-9.20
2022-12-15T02:26:18.568Z,-9.20
2022-12-15T02:29:15.553Z,-9.20
2022-12-15T02:32:13.644Z,-9.30
2022-12-15T02:34:43.377Z,-9.40
2022-12-15T02:37:18.856Z,-9.50
2022-12-15T02:39:45.525Z,-9.50
2022-12-15T02:42:12.544Z,-9.30
2022-12-15T02:45:05.385Z,-9.20
2022-12-15T02:47:46.315Z,-9.30
2022-12-15T02:50:40.761Z,-9.10
2022-12-15T02:53:25.521Z,-9.10
2022-12-15T02:56:34.353Z,-9.00
2022-12-15T02:59:00.918Z,-9.00
2022-12-15T03:01:42.983Z,-8.90
2022-12-15T03:04:11.810Z,-8.80
2022-12-15T03:06:39.019Z,-8.80
2022-12-15T03:09:05.818Z,-8.90
2022-12-15T03:11:32.455Z,-8.80
2022-12-15T03:13:59.062Z,-8.80
2022-12-15T03:16:25.758Z,-8.70
2022-12-15T03:18:52.516Z,-8.70
2022-12-15T03:21:19.749Z,-8.50
2022-12-15T03:23:46.396Z,-8.70
2022-12-15T03:26:13.029Z,-8.60
2022-12-15T03:28:39.662Z,-8.50
2022-12-15T03:31:07.096Z,-8.50
2022-12-15T03:33:34.492Z,-8.30
2022-12-15T03:36:01.852Z,-8.10
2022-12-15T03:38:28.856Z,-8.10
2022-12-15T03:40:55.481Z,-8.20
2022-12-15T03:43:22.376Z,-8.00
2022-12-15T03:45:49.381Z,-8.20
2022-12-15T03:48:16.013Z,-8.20
2022-12-15T03:50:42.721Z,-8.30
2022-12-15T03:53:09.334Z,-8.10
2022-12-15T03:55:36.341Z,-8.00
2022-12-15T03:58:03.004Z,-8.10
2022-12-15T04:00:30.372Z,-7.90
2022-12-15T04:02:57.118Z,-8.00
2022-12-15T04:05:28.360Z,-8.00
2022-12-15T04:07:56.211Z,-7.90
2022-12-15T04:10:27.370Z,-7.70
2022-12-15T04:13:00.109Z,-7.70
2022-12-15T04:15:27.642Z,-7.60
2022-12-15T04:17:54.872Z,-7.50
2022-12-15T04:20:22.098Z,-7.70
2022-12-15T04:22:51.336Z,-7.80
2022-12-15T04:25:39.572Z,-7.70
2022-12-15T04:28:25.539Z,-7.80
2022-12-15T04:31:17.471Z,-7.60
2022-12-15T04:34:08.041Z,-7.60
2022-12-15T04:36:55.225Z,-7.80
2022-12-15T04:39:41.570Z,-7.80
2022-12-15T04:42:26.726Z,-7.90
2022-12-15T04:45:20.552Z,-7.80
2022-12-15T04:48:06.736Z,-8.00
2022-12-15T04:50:52.306Z,-8.10
2022-12-15T04:53:38.575Z,-8.20
2022-12-15T04:56:29.128Z,-8.30
2022-12-15T04:59:14.550Z,-8.40
2022-12-15T05:02:00.490Z,-8.30
2022-12-15T05:04:45.768Z,-8.40
2022-12-15T05:07:31.064Z,-8.60
2022-12-15T05:10:16.288Z,-8.50
2022-12-15T05:13:02.102Z,-8.50
2022-12-15T05:15:48.067Z,-8.50
2022-12-15T05:18:33.437Z,-8.60
2022-12-15T05:21:18.758Z,-8.70
2022-12-15T05:24:03.971Z,-8.60
2022-12-15T05:26:52.982Z,-8.60
2022-12-15T05:29:40.013Z,-8.50
2022-12-15T05:32:08.062Z,-8.40
2022-12-15T05:34:35.958Z,-8.50
2022-12-15T05:37:04.259Z,-8.60
2022-12-15T05:39:31.102Z,-8.60
2022-12-15T05:41:57.954Z,-8.70
2022-12-15T05:44:25.416Z,-8.60
2022-12-15T05:46:52.380Z,-8.70
2022-12-15T05:49:19.155Z,-8.90
2022-12-15T05:51:48.194Z,-8.90
2022-12-15T05:54:19.628Z,-8.90
2022-12-15T05:56:50.294Z,-8.90
2022-12-15T05:59:17.784Z,-8.90
2022-12-15T06:01:44.854Z,-8.80
2022-12-15T06:04:15.294Z,-8.90
2022-12-15T06:06:42.061Z,-9.00
2022-12-15T06:09:09.470Z,-9.10
2022-12-15T06:11:37.213Z,-9.10
2022-12-15T06:14:03.900Z,-9.10
2022-12-15T06:16:30.590Z,-9.10
2022-12-15T06:19:00.681Z,-9.10
2022-12-15T06:21:35.065Z,-8.90
2022-12-15T06:24:02.192Z,-8.80
2022-12-15T06:26:35.060Z,-8.70
2022-12-15T06:29:03.108Z,-8.80
2022-12-15T06:31:30.859Z,-8.70
2022-12-15T06:34:02.080Z,-8.70
2022-12-15T06:36:30.687Z,-8.70
2022-12-15T06:39:02.874Z,-8.60
2022-12-15T06:41:30.279Z,-8.60
2022-12-15T06:43:57.393Z,-8.60
2022-12-15T06:46:25.749Z,-8.50
2022-12-15T06:48:53.069Z,-8.50
2022-12-15T06:51:19.913Z,-8.40
2022-12-15T06:53:50.783Z,-8.20
2022-12-15T06:56:24.455Z,-8.10
2022-12-15T06:58:55.713Z,-8.00
2022-12-15T07:01:24.018Z,-7.90
2022-12-15T07:03:54.841Z,-7.90
2022-12-15T07:06:21.856Z,-7.80
2022-12-15T07:08:52.302Z,-7.80
2022-12-15T07:11:20.725Z,-7.90
2022-12-15T07:13:52.109Z,-8.00
2022-12-15T07:16:19.999Z,-7.90
2022-12-15T07:18:46.798Z,-7.90
2022-12-15T07:21:13.469Z,-8.30
2022-12-15T07:23:54.115Z,-8.20
2022-12-15T07:26:22.711Z,-8.30
2022-12-15T07:28:49.447Z,-8.50
2022-12-15T07:31:16.209Z,-8.50
2022-12-15T07:33:43.063Z,-8.50
2022-12-15T07:36:10.817Z,-8.50
2022-12-15T07:38:37.511Z,-8.30
2022-12-15T07:41:06.693Z,-8.10
2022-12-15T07:43:34.134Z,-8.00
2022-12-15T07:46:01.499Z,-8.00
2022-12-15T07:48:29.630Z,-8.00
2022-12-15T07:51:07.462Z,-8.10
2022-12-15T07:53:37.015Z,-8.10
2022-12-15T07:56:08.388Z,-8.00
2022-12-15T07:58:36.672Z,-8.00
2022-12-15T08:01:06.519Z,-8.00
2022-12-15T08:03:34.660Z,-7.80
2022-12-15T08:06:10.329Z,-7.70
2022-12-15T08:08:37.580Z,-7.80
2022-12-15T08:11:11.853Z,-7.80
2022-12-15T08:16:26.941Z,-7.60
2022-12-15T08:18:53.830Z,-7.60
2022-12-15T08:21:21.013Z,-7.50
2022-12-15T08:23:47.909Z,-7.40
2022-12-15T08:26:17.591Z,-7.40
2022-12-15T08:28:45.725Z,-7.40
2022-12-15T08:31:18.614Z,-7.30
2022-12-15T08:33:45.813Z,-7.20
2022-12-15T08:36:14.732Z,-7.10
2022-12-15T08:38:42.735Z,-7.10
2022-12-15T08:41:15.657Z,-7.10
2022-12-15T08:43:48.039Z,-7.00
2022-12-15T08:46:16.764Z,-6.90
2022-12-15T08:48:43.818Z,-6.60
2022-12-15T08:51:10.517Z,-6.30
2022-12-15T08:53:37.193Z,-6.10
2022-12-15T08:56:06.052Z,-5.80
2022-12-15T08:58:33.552Z,-5.50
2022-12-15T09:01:06.131Z,-5.30
2022-12-15T09:03:34.221Z,-4.90
2022-12-15T09:06:05.894Z,-4.70
2022-12-15T09:08:33.606Z,-4.70
2022-12-15T09:11:01.544Z,-4.80
2022-12-15T09:13:28.834Z,-4.90
2022-12-15T09:16:10.388Z,-5.00
2022-12-15T09:18:37.826Z,-5.00
2022-12-15T09:21:07.033Z,-4.90
2022-12-15T09:23:35.221Z,-4.90
2022-12-15T09:26:14.210Z,-4.90
2022-12-15T09:28:42.861Z,-4.90
2022-12-15T09:31:20.760Z,-4.90
2022-12-15T09:33:48.596Z,-4.90
2022-12-15T09:36:15.450Z,-4.90
2022-12-15T09:38:43.576Z,-5.00
2022-12-15T09:41:13.222Z,-5.00
2022-12-15T09:43:55.055Z,-4.80
2022-12-15T09:47:00.541Z,-4.50
2022-12-15T09:49:32.954Z,-4.10
2022-12-15T09:52:10.985Z,-3.90
2022-12-15T09:54:41.578Z,-3.30
2022-12-15T09:57:14.848Z,-2.80
2022-12-15T10:00:12.780Z,-2.40
2022-12-15T10:02:42.263Z,-1.80
2022-12-15T10:06:06.935Z,-1.50
2022-12-15T10:08:23.289Z,-1.10
2022-12-15T10:10:59.106Z,-1.20
2022-12-15T10:13:28.943Z,-1.20
2022-12-15T10:16:14.264Z,-1.20
2022-12-15T10:19:05.832Z,-1.30
2022-12-15T10:21:32.701Z,-1.50
2022-12-15T10:24:15.509Z,-1.40
2022-12-15T10:26:43.882Z,-1.10
2022-12-15T10:29:27.584Z,-0.60
2022-12-15T10:32:05.178Z,-0.20
2022-12-15T10:34:37.893Z,0.10
2022-12-15T10:37:05.831Z,0.20
2022-12-15T10:39:39.173Z,0.30
2022-12-15T10:42:12.659Z,0.50
2022-12-15T10:44:42.717Z,0.50
2022-12-15T10:47:16.232Z,0.60
2022-12-15T10:49:43.081Z,0.70
2022-12-15T10:52:21.109Z,0.50
2022-12-15T10:54:50.117Z,0.70
2022-12-15T10:57:21.458Z,0.50
2022-12-15T11:02:36.666Z,0.60
2022-12-15T11:05:06.293Z,0.90
2022-12-15T11:07:34.808Z,1.10
2022-12-15T11:10:08.247Z,1.00
2022-12-15T11:12:58.177Z,1.00
2022-12-15T11:15:28.223Z,0.90
2022-12-15T11:18:12.702Z,1.00
2022-12-15T11:20:44.538Z,1.00
2022-12-15T11:23:50.606Z,1.20
2022-12-15T11:26:20.001Z,1.10
2022-12-15T11:28:55.469Z,1.10
2022-12-15T11:31:38.460Z,1.20
2022-12-15T11:34:15.704Z,1.30
2022-12-15T11:37:15.804Z,1.20
2022-12-15T11:40:15.269Z,1.00
2022-12-15T11:43:05.196Z,1.10
2022-12-15T11:45:37.460Z,1.30
2022-12-15T11:48:16.469Z,1.30
2022-12-15T11:51:14.354Z,1.40
2022-12-15T11:54:00.626Z,1.30
2022-12-15T11:56:49.781Z,1.10
2022-12-15T11:59:32.573Z,1.10
2022-12-15T12:02:22.918Z,1.10
2022-12-15T12:05:02.882Z,1.10
2022-12-15T12:07:41.550Z,1.10
2022-12-15T12:10:27.333Z,1.20
2022-12-15T12:12:56.597Z,1.30
2022-12-15T12:15:50.653Z,1.30
2022-12-15T12:18:24.889Z,1.40
2022-12-15T12:21:14.885Z,1.60
2022-12-15T12:24:25.698Z,1.60
2022-12-15T12:27:01.528Z,1.60
2022-12-15T12:29:38.588Z,1.50
2022-12-15T12:32:33.414Z,1.40
2022-12-15T12:35:30.488Z,1.40
2022-12-15T12:38:04.666Z,1.50
2022-12-15T12:41:01.005Z,1.30
2022-12-15T12:43:34.658Z,1.30
2022-12-15T12:46:01.964Z,1.30
2022-12-15T12:48:50.742Z,1.30
2022-12-15T12:51:26.728Z,1.30
2022-12-15T12:53:54.221Z,1.40
2022-12-15T12:56:43.950Z,1.40
2022-12-15T12:59:30.563Z,1.30
2022-12-15T13:02:18.481Z,1.30
2022-12-15T13:05:04.327Z,1.30
2022-12-15T13:07:36.270Z,1.40
2022-12-15T13:10:02.874Z,1.40
2022-12-15T13:12:51.036Z,1.40
2022-12-15T13:15:26.998Z,1.40
2022-12-15T13:17:57.758Z,1.40
2022-12-15T13:20:32.107Z,1.30
2022-12-15T13:23:25.158Z,1.20
2022-12-15T13:25:57.840Z,1.20
2022-12-15T13:28:39.967Z,1.10
2022-12-15T13:31:19.514Z,1.20
2022-12-15T13:33:49.668Z,1.10
2022-12-15T13:36:41.302Z,1.00
2022-12-15T13:39:17.048Z,1.00
2022-12-15T13:42:15.214Z,1.00
2022-12-15T13:44:45.448Z,0.90
2022-12-15T13:47:16.704Z,0.70
2022-12-15T13:50:02.332Z,0.70
2022-12-15T13:55:39.938Z,0.50
2022-12-15T13:58:13.040Z,0.50
2022-12-15T14:00:46.961Z,0.50
2022-12-15T14:03:15.964Z,0.50
2022-12-15T14:05:55.241Z,0.40
2022-12-15T14:08:24.412Z,0.40
2022-12-15T14:10:57.024Z,0.40
2022-12-15T14:13:34.568Z,0.30
2022-12-15T14:16:14.159Z,0.20
2022-12-15T14:18:44.865Z,0.20
2022-12-15T14:21:24.104Z,0.20
2022-12-15T14:24:28.874Z,0.20
2022-12-15T14:26:37.494Z,0.10
2022-12-15T14:29:06.208Z,0.10
2022-12-15T14:31:33.763Z,0.10
2022-12-15T14:34:11.546Z,0.10
2022-12-15T14:36:41.042Z,0.00
2022-12-15T14:39:17.400Z,-0.10
2022-12-15T14:41:48.918Z,-0.10
2022-12-15T14:44:38.709Z,-0.20
2022-12-15T14:47:16.133Z,-0.20
2022-12-15T14:49:45.130Z,-0.20
2022-12-15T14:52:23.768Z,-0.30
2022-12-15T14:54:59.735Z,-0.30
2022-12-15T14:57:45.047Z,-0.40
2022-12-15T15:00:34.169Z,-0.50
2022-12-15T15:03:06.810Z,0.50
2022-12-15T15:03:18.794Z,-0.60
2022-12-15T15:05:56.921Z,-0.70
2022-12-15T15:08:26.612Z,-1.00
2022-12-15T15:10:55.997Z,-1.10
2022-12-15T15:13:26.646Z,-1.20
2022-12-15T15:15:56.030Z,-1.30
2022-12-15T15:18:27.089Z,-1.40
2022-12-15T15:21:03.152Z,-1.50
2022-12-15T15:23:30.422Z,-1.60
2022-12-15T15:26:06.953Z,-1.80
2022-12-15T15:28:37.864Z,-1.90
2022-12-15T15:31:33.922Z,-2.00
2022-12-15T15:34:06.129Z,-2.00
2022-12-15T15:36:36.065Z,-2.10
2022-12-15T15:39:10.281Z,-2.20
2022-12-15T15:41:36.903Z,-2.30
2022-12-15T15:44:12.997Z,-2.30
2022-12-15T15:46:48.170Z,-2.40
2022-12-15T15:49:18.526Z,-2.50
2022-12-15T15:51:45.605Z,-2.70
2022-12-15T15:54:17.729Z,-2.90
2022-12-15T15:56:44.372Z,-2.80
2022-12-15T15:59:13.378Z,-2.80
2022-12-15T16:01:40.644Z,-3.00
2022-12-15T16:04:07.740Z,-3.20
2022-12-15T16:06:35.767Z,-3.40
2022-12-15T16:09:02.799Z,-3.60
2022-12-15T16:11:33.067Z,-3.60
2022-12-15T16:14:01.366Z,-3.60
2022-12-15T16:16:31.749Z,-3.70
2022-12-15T16:18:58.802Z,-3.70
2022-12-15T16:21:27.621Z,-3.70
2022-12-15T16:23:55.167Z,-3.70
2022-12-15T16:26:30.295Z,-3.80
2022-12-15T16:28:57.451Z,-3.90
2022-12-15T16:31:41.476Z,-4.00
2022-12-15T16:34:08.740Z,-4.00
2022-12-15T16:36:35.474Z,-4.10
2022-12-15T16:39:02.639Z,-4.10
2022-12-15T16:41:29.274Z,-4.10
2022-12-15T16:43:55.910Z,-4.20
2022-12-15T16:46:22.571Z,-4.20
2022-12-15T16:48:49.285Z,-4.30
2022-12-15T16:51:37.017Z,-4.30
2022-12-15T16:54:04.096Z,-4.30
2022-12-15T16:56:30.826Z,-4.40
2022-12-15T16:59:30.859Z,-4.50
2022-12-15T17:01:44.666Z,-4.50
2022-12-15T17:04:12.058Z,-4.50
2022-12-15T17:06:39.088Z,-4.50
2022-12-15T17:09:07.967Z,-4.70
2022-12-15T17:11:35.382Z,-4.70
2022-12-15T17:14:01.962Z,-4.80
2022-12-15T17:16:29.807Z,-4.90
2022-12-15T17:18:56.888Z,-4.90
2022-12-15T17:21:30.512Z,-4.90
2022-12-15T17:24:01.486Z,-5.20
2022-12-15T17:26:31.490Z,-5.10
2022-12-15T17:29:16.853Z,-5.00
2022-12-15T17:31:43.628Z,-5.00
2022-12-15T17:34:31.908Z,-4.90
2022-12-15T17:37:00.826Z,-5.00
2022-12-15T17:39:28.436Z,-5.00
2022-12-15T17:42:00.558Z,-5.00
2022-12-15T17:44:36.826Z,-5.10
2022-12-15T17:47:07.223Z,-5.30
2022-12-15T17:49:37.231Z,-5.50
2022-12-15T17:52:27.749Z,-5.60
2022-12-15T17:54:55.817Z,-5.60
2022-12-15T17:57:22.573Z,-5.70
2022-12-15T17:59:49.260Z,-5.70
2022-12-15T18:02:16.039Z,-5.60
2022-12-15T18:04:43.488Z,-5.60
2022-12-15T18:07:21.294Z,-5.60
2022-12-15T18:09:48.928Z,-5.80
2022-12-15T18:12:26.914Z,-5.90
2022-12-15T18:14:54.948Z,-5.90
2022-12-15T18:17:21.979Z,-6.00
2022-12-15T18:19:48.924Z,-6.00
2022-12-15T18:22:22.103Z,-6.10
2022-12-15T18:24:50.836Z,-6.10
2022-12-15T18:27:25.090Z,-6.20
2022-12-15T18:29:52.097Z,-6.20
2022-12-15T18:32:19.467Z,-6.20
2022-12-15T18:34:46.591Z,-6.20
2022-12-15T18:37:16.556Z,-6.30
2022-12-15T18:39:43.374Z,-6.40
2022-12-15T18:42:18.736Z,-6.40
2022-12-15T18:44:48.034Z,-6.50
2022-12-15T18:47:17.325Z,-6.50
2022-12-15T18:49:44.194Z,-6.60
2022-12-15T18:52:15.986Z,-6.60
2022-12-15T18:54:43.037Z,-6.50
2022-12-15T18:57:35.707Z,-6.60
2022-12-15T19:00:17.205Z,-6.50
2022-12-15T19:02:44.187Z,-6.40
2022-12-15T19:05:27.039Z,-6.30
2022-12-15T19:08:03.709Z,-6.30
2022-12-15T19:10:33.630Z,-6.50
2022-12-15T19:13:00.925Z,-6.60
2022-12-15T19:15:28.254Z,-6.70
2022-12-15T19:18:13.321Z,-6.90
2022-12-15T19:20:58.541Z,-7.00
2022-12-15T19:23:25.549Z,-7.00
2022-12-15T19:25:53.557Z,-7.10
2022-12-15T19:28:22.509Z,-7.10
2022-12-15T19:30:50.206Z,-7.10
2022-12-15T19:33:17.788Z,-7.10
2022-12-15T19:35:48.577Z,-7.10
2022-12-15T19:38:21.701Z,-7.10
2022-12-15T19:40:48.947Z,-7.00
2022-12-15T19:43:17.209Z,-7.10
2022-12-15T19:45:44.103Z,-7.10
2022-12-15T19:48:12.447Z,-7.20
2022-12-15T19:50:41.268Z,-7.20
2022-12-15T19:53:22.617Z,-7.20
2022-12-15T19:55:49.808Z,-7.10
2022-12-15T19:58:28.591Z,-7.20
2022-12-15T20:01:01.942Z,-7.20
2022-12-15T20:03:32.086Z,-7.30
2022-12-15T20:06:00.882Z,-7.40
2022-12-15T20:08:33.335Z,-7.50
2022-12-15T20:11:00.409Z,-7.40
2022-12-15T20:13:27.293Z,-7.40
2022-12-15T20:15:54.511Z,-7.40
2022-12-15T20:18:21.220Z,-7.50
2022-12-15T20:20:49.402Z,-7.50
2022-12-15T20:23:25.839Z,-7.60
2022-12-15T20:25:53.072Z,-7.70
2022-12-15T20:28:25.785Z,-7.80
2022-12-15T20:30:53.517Z,-7.80
2022-12-15T20:33:20.725Z,-7.80
2022-12-15T20:35:48.791Z,-7.80
2022-12-15T20:38:29.473Z,-7.80
2022-12-15T20:40:56.944Z,-7.80
2022-12-15T20:43:24.902Z,-7.80
2022-12-15T20:46:03.632Z,-7.80
2022-12-15T20:48:31.788Z,-7.90
2022-12-15T20:50:59.511Z,-7.80
2022-12-15T20:53:27.832Z,-7.80
2022-12-15T20:55:55.953Z,-7.80
2022-12-15T20:58:28.356Z,-7.70
2022-12-15T21:00:59.382Z,-7.70
2022-12-15T21:03:32.761Z,-7.70
2022-12-15T21:06:00.335Z,-7.50
2022-12-15T21:08:29.806Z,-7.40
2022-12-15T21:11:00.799Z,-7.50
2022-12-15T21:13:32.096Z,-7.60
2022-12-15T21:15:58.937Z,-7.70
2022-12-15T21:19:18.038Z,-7.70
2022-12-15T21:21:20.620Z,-7.80
2022-12-15T21:23:48.487Z,-7.90
2022-12-15T21:26:20.179Z,-7.90
2022-12-15T21:28:48.515Z,-8.10
2022-12-15T21:31:16.940Z,-8.20
2022-12-15T21:33:43.716Z,-8.10
2022-12-15T21:36:15.219Z,-8.10
2022-12-15T21:38:43.095Z,-8.00
2022-12-15T21:41:16.533Z,-8.00
2022-12-15T21:43:44.018Z,-8.00
2022-12-15T21:46:17.246Z,-8.10
2022-12-15T21:49:03.048Z,-8.20
2022-12-15T21:51:37.930Z,-8.30
2022-12-15T21:54:11.847Z,-8.10
2022-12-15T21:56:38.408Z,-8.00
2022-12-15T21:59:13.029Z,-8.10
2022-12-15T22:01:39.794Z,-8.10
2022-12-15T22:04:15.585Z,-8.10
2022-12-15T22:06:45.960Z,-8.20
2022-12-15T22:09:18.204Z,-8.20
2022-12-15T22:11:47.921Z,-8.00
2022-12-15T22:14:34.379Z,-8.30
2022-12-15T22:17:09.865Z,-8.10
2022-12-15T22:19:36.448Z,-8.20
2022-12-15T22:22:03.050Z,-8.20
2022-12-15T22:24:29.606Z,-8.20
2022-12-15T22:26:56.353Z,-8.20
2022-12-15T22:29:24.053Z,-8.30
2022-12-15T22:34:38.187Z,-8.30
2022-12-15T22:37:04.812Z,-8.30
2022-12-15T22:39:31.694Z,-8.30
2022-12-15T22:41:58.692Z,-8.40
2022-12-15T22:44:28.005Z,-8.40
2022-12-15T22:46:56.751Z,-8.40
2022-12-15T22:49:33.676Z,-8.40
2022-12-15T22:52:00.433Z,-8.50
2022-12-15T22:54:28.968Z,-8.50
2022-12-15T22:57:06.089Z,-8.50
2022-12-15T22:59:43.639Z,-8.70
2022-12-15T23:02:11.100Z,-8.60
2022-12-15T23:04:37.689Z,-8.50
2022-12-15T23:07:07.401Z,-8.40
2022-12-15T23:09:34.079Z,-8.20
2022-12-15T23:12:00.864Z,-8.20
2022-12-15T23:14:46.324Z,-8.30
2022-12-15T23:17:13.421Z,-8.10
2022-12-15T23:19:47.120Z,-8.30
2022-12-15T23:22:14.389Z,-8.30
2022-12-15T23:24:41.651Z,-8.40
2022-12-15T23:27:11.888Z,-8.30
2022-12-15T23:29:38.574Z,-8.40
2022-12-15T23:32:05.903Z,-8.50
2022-12-15T23:34:32.486Z,-8.70
2022-12-15T23:36:59.096Z,-8.60
2022-12-15T23:39:25.728Z,-8.40
2022-12-15T23:41:52.296Z,-8.40
2022-12-15T23:44:18.897Z,-8.30
2022-12-15T23:46:46.672Z,-8.50
2022-12-15T23:49:13.413Z,-8.30
2022-12-15T23:51:39.990Z,-8.40
2022-12-15T23:54:06.752Z,-8.40
2022-12-15T23:56:33.396Z,-8.30
2022-12-15T23:59:00.020Z,-8.30
